PWSweather.com
Personal Weather Stations
Station Observations
INORDPAS37
Bondues, BonduesFR 59910

BonduesBonduesFR 59910

Lat: 50.7, Lon: 3.09

Elevation: 102

Station Type: Netatmo

http://bondues.meteoamikuze.com

High Low Average
Temperature 59.0°F15.0°C 47.7°F8.7°C 52.3°F11.3°C
Dew Point 43.0°F6.1°C 31.6°F-0.2°C 36.6°F2.6°C
Winds 5.6 mph 9.0 kmh 0.7 mph 1.1 kmh 2.0 mph WNW3.2 kmh WNW
Wind Gusts 16.1 mph25.9 kmh 1.8 mph2.9 kmh 6.0 mph9.7 kmh
Humidity 66% 51% 59%
Pressure 30.32 in1026.8 mb 30.08 in1018.6 mb -
Precipitation 0.02 in0.5 mm - -
Hour Temp Dew Point Humidity Winds Wind Gusts Pressure Precip Precip Rate Daily Precip Total
12:08 AM 52.0°F11.1°C 38.1°F3.4°C 64% 1.8 mph WNW2.9 kmh WNW 4.3 mph6.9 kmh 30.08 in1018.6 mb 0.00 in0.0 mm 0.00 in0.0 mm 0.00 in0.0 mm
12:29 AM 52.2°F11.2°C 38.3°F3.5°C 64% 1.3 mph NW2.1 kmh NW 3.1 mph5.0 kmh 30.08 in1018.6 mb 0.00 in0.0 mm 0.00 in0.0 mm 0.00 in0.0 mm
12:49 AM 52.2°F11.2°C 38.3°F3.5°C 64% 1.8 mph WNW2.9 kmh WNW 4.3 mph6.9 kmh 30.08 in1018.6 mb 0.00 in0.0 mm 0.00 in0.0 mm 0.00 in0.0 mm
01:09 AM 52.0°F11.1°C 37.8°F3.2°C 63% 1.3 mph W2.1 kmh W 2.5 mph4.0 kmh 30.08 in1018.6 mb 0.00 in0.0 mm 0.00 in0.0 mm 0.00 in0.0 mm
01:29 AM 52.0°F11.1°C 37.4°F3.0°C 62% 1.8 mph WNW2.9 kmh WNW 3.8 mph6.1 kmh 30.09 in1019.0 mb 0.00 in0.0 mm 0.00 in0.0 mm 0.00 in0.0 mm
01:48 AM 52.2°F11.2°C 37.6°F3.1°C 62% 1.3 mph NW2.1 kmh NW 3.1 mph5.0 kmh 30.09 in1019.0 mb 0.00 in0.0 mm 0.00 in0.0 mm 0.00 in0.0 mm
02:09 AM 52.2°F11.2°C 37.6°F3.1°C 62% 1.8 mph WNW2.9 kmh WNW 4.9 mph7.9 kmh 30.10 in1019.3 mb 0.00 in0.0 mm 0.00 in0.0 mm 0.00 in0.0 mm
02:29 AM 52.5°F11.4°C 37.4°F3.0°C 61% 1.8 mph NW2.9 kmh NW 6.9 mph11.1 kmh 30.10 in1019.3 mb 0.00 in0.0 mm 0.00 in0.0 mm 0.00 in0.0 mm
02:49 AM 52.5°F11.4°C 37.4°F3.0°C 61% 2.5 mph NW4.0 kmh NW 5.6 mph9.0 kmh 30.10 in1019.3 mb 0.00 in0.0 mm 0.00 in0.0 mm 0.00 in0.0 mm
03:09 AM 52.5°F11.4°C 37.4°F3.0°C 61% 3.1 mph NW5.0 kmh NW 8.7 mph14.0 kmh 30.10 in1019.3 mb 0.00 in0.0 mm 0.00 in0.0 mm 0.00 in0.0 mm
03:29 AM 52.2°F11.2°C 37.0°F2.8°C 61% 2.5 mph WNW4.0 kmh WNW 4.9 mph7.9 kmh 30.10 in1019.3 mb 0.00 in0.0 mm 0.00 in0.0 mm 0.00 in0.0 mm
03:39 AM 52.0°F11.1°C 37.0°F2.8°C 61% 1.8 mph NW2.9 kmh NW 4.3 mph6.9 kmh 30.10 in1019.3 mb 0.00 in0.0 mm 0.00 in0.0 mm 0.00 in0.0 mm
03:59 AM 51.8°F11.0°C 36.9°F2.7°C 61% 1.8 mph WNW2.9 kmh WNW 5.6 mph9.0 kmh 30.10 in1019.3 mb 0.00 in0.0 mm 0.00 in0.0 mm 0.00 in0.0 mm
04:19 AM 51.3°F10.7°C 36.3°F2.4°C 61% 1.8 mph WNW2.9 kmh WNW 4.9 mph7.9 kmh 30.11 in1019.6 mb 0.00 in0.0 mm 0.00 in0.0 mm 0.00 in0.0 mm
04:39 AM 50.5°F10.3°C 36.0°F2.2°C 62% 1.3 mph W2.1 kmh W 3.8 mph6.1 kmh 30.11 in1019.6 mb 0.00 in0.0 mm 0.00 in0.0 mm 0.00 in0.0 mm
05:00 AM 50.0°F10.0°C 35.8°F2.1°C 63% 1.8 mph WNW2.9 kmh WNW 3.8 mph6.1 kmh 30.11 in1019.6 mb 0.00 in0.0 mm 0.00 in0.0 mm 0.00 in0.0 mm
05:19 AM 50.0°F10.0°C 35.8°F2.1°C 63% 1.8 mph WNW2.9 kmh WNW 4.3 mph6.9 kmh 30.11 in1019.6 mb 0.00 in0.0 mm 0.00 in0.0 mm 0.00 in0.0 mm
05:39 AM 50.2°F10.1°C 36.5°F2.5°C 64% 2.5 mph NW4.0 kmh NW 8.7 mph14.0 kmh 30.12 in1020.0 mb 0.00 in0.0 mm 0.00 in0.0 mm 0.00 in0.0 mm
06:00 AM 50.4°F10.2°C 36.5°F2.5°C 64% 1.8 mph NW2.9 kmh NW 4.9 mph7.9 kmh 30.13 in1020.3 mb 0.00 in0.0 mm 0.00 in0.0 mm 0.00 in0.0 mm
06:22 AM 50.4°F10.2°C 36.5°F2.5°C 64% 1.8 mph WNW2.9 kmh WNW 5.6 mph9.0 kmh 30.14 in1020.7 mb 0.00 in0.0 mm 0.00 in0.0 mm 0.00 in0.0 mm
06:41 AM 50.0°F10.0°C 36.3°F2.4°C 64% 1.8 mph NW2.9 kmh NW 4.3 mph6.9 kmh 30.14 in1020.7 mb 0.00 in0.0 mm 0.00 in0.0 mm 0.00 in0.0 mm
07:02 AM 49.5°F9.7°C 35.8°F2.1°C 64% 1.3 mph NW2.1 kmh NW 4.3 mph6.9 kmh 30.15 in1021.0 mb 0.00 in0.0 mm 0.00 in0.0 mm 0.00 in0.0 mm
07:22 AM 49.3°F9.6°C 36.0°F2.2°C 65% 0.7 mph NW1.1 kmh NW 3.1 mph5.0 kmh 30.16 in1021.3 mb 0.00 in0.0 mm 0.00 in0.0 mm 0.00 in0.0 mm
07:42 AM 49.3°F9.6°C 36.0°F2.2°C 65% 0.7 mph W1.1 kmh W 3.1 mph5.0 kmh 30.17 in1021.7 mb 0.00 in0.0 mm 0.00 in0.0 mm 0.00 in0.0 mm
08:02 AM 49.6°F9.8°C 36.3°F2.4°C 65% 1.3 mph W2.1 kmh W 4.3 mph6.9 kmh 30.18 in1022.0 mb 0.00 in0.0 mm 0.00 in0.0 mm 0.00 in0.0 mm
08:22 AM 50.2°F10.1°C 36.9°F2.7°C 65% 1.3 mph NW2.1 kmh NW 4.9 mph7.9 kmh 30.18 in1022.0 mb 0.00 in0.0 mm 0.00 in0.0 mm 0.00 in0.0 mm
08:43 AM 50.9°F10.5°C 37.6°F3.1°C 65% 3.1 mph NNW5.0 kmh NNW 8.7 mph14.0 kmh 30.20 in1022.7 mb 0.01 in0.3 mm 0.03 in0.8 mm 0.01 in0.3 mm
09:03 AM 50.5°F10.3°C 37.2°F2.9°C 65% 1.8 mph WNW2.9 kmh WNW 3.8 mph6.1 kmh 30.21 in1023.0 mb 0.02 in0.5 mm 0.01 in0.3 mm 0.02 in0.5 mm
09:24 AM 51.1°F10.6°C 38.1°F3.4°C 66% 1.8 mph WNW2.9 kmh WNW 6.9 mph11.1 kmh 30.22 in1023.4 mb 0.02 in0.5 mm 0.00 in0.0 mm 0.02 in0.5 mm
09:43 AM 51.8°F11.0°C 38.7°F3.7°C 66% 1.8 mph NW2.9 kmh NW 5.6 mph9.0 kmh 30.22 in1023.4 mb 0.00 in0.0 mm 0.00 in0.0 mm 0.02 in0.5 mm
10:04 AM 53.1°F11.7°C 39.9°F4.4°C 66% 3.1 mph NW5.0 kmh NW 8.1 mph13.0 kmh 30.23 in1023.7 mb 0.00 in0.0 mm 0.00 in0.0 mm 0.02 in0.5 mm
10:24 AM 54.0°F12.2°C 40.8°F4.9°C 66% 1.8 mph WNW2.9 kmh WNW 4.9 mph7.9 kmh 30.22 in1023.4 mb 0.00 in0.0 mm 0.00 in0.0 mm 0.02 in0.5 mm
10:44 AM 55.8°F13.2°C 42.1°F5.6°C 65% 4.3 mph NW6.9 kmh NW 13.6 mph21.9 kmh 30.24 in1024.0 mb 0.00 in0.0 mm 0.00 in0.0 mm 0.02 in0.5 mm
11:05 AM 55.6°F13.1°C 41.9°F5.5°C 65% 3.1 mph NNW5.0 kmh NNW 8.1 mph13.0 kmh 30.24 in1024.0 mb 0.00 in0.0 mm 0.00 in0.0 mm 0.02 in0.5 mm
11:24 AM 55.8°F13.2°C 41.7°F5.4°C 64% 3.1 mph N5.0 kmh N 9.8 mph15.8 kmh 30.24 in1024.0 mb 0.00 in0.0 mm 0.00 in0.0 mm 0.02 in0.5 mm
11:45 AM 57.0°F13.9°C 43.0°F6.1°C 64% 2.5 mph NNW4.0 kmh NNW 7.4 mph11.9 kmh 30.25 in1024.4 mb 0.00 in0.0 mm 0.00 in0.0 mm 0.02 in0.5 mm
12:05 PM 57.7°F14.3°C 42.8°F6.0°C 62% 3.1 mph NW5.0 kmh NW 8.1 mph13.0 kmh 30.25 in1024.4 mb 0.00 in0.0 mm 0.00 in0.0 mm 0.02 in0.5 mm
12:25 PM 57.6°F14.2°C 41.9°F5.5°C 60% 3.8 mph NNW6.1 kmh NNW 11.2 mph18.0 kmh 30.26 in1024.7 mb 0.00 in0.0 mm 0.00 in0.0 mm 0.02 in0.5 mm
12:45 PM 57.4°F14.1°C 40.8°F4.9°C 58% 3.8 mph NW6.1 kmh NW 10.5 mph16.9 kmh 30.27 in1025.1 mb 0.00 in0.0 mm 0.00 in0.0 mm 0.02 in0.5 mm
01:03 PM 57.2°F14.0°C 40.6°F4.8°C 58% 3.1 mph NW5.0 kmh NW 16.1 mph25.9 kmh 30.27 in1025.1 mb 0.00 in0.0 mm 0.00 in0.0 mm 0.02 in0.5 mm
01:22 PM 57.2°F14.0°C 40.6°F4.8°C 58% 3.8 mph NW6.1 kmh NW 13.0 mph20.9 kmh 30.27 in1025.1 mb 0.00 in0.0 mm 0.00 in0.0 mm 0.02 in0.5 mm
01:43 PM 58.1°F14.5°C 40.6°F4.8°C 56% 4.9 mph NW7.9 kmh NW 10.5 mph16.9 kmh 30.27 in1025.1 mb 0.00 in0.0 mm 0.00 in0.0 mm 0.02 in0.5 mm
02:03 PM 59.0°F15.0°C 40.8°F4.9°C 54% 5.6 mph NW9.0 kmh NW 13.0 mph20.9 kmh 30.27 in1025.1 mb 0.00 in0.0 mm 0.00 in0.0 mm 0.02 in0.5 mm
02:23 PM 57.9°F14.4°C 39.7°F4.3°C 54% 3.8 mph NW6.1 kmh NW 11.9 mph19.2 kmh 30.28 in1025.4 mb 0.00 in0.0 mm 0.00 in0.0 mm 0.02 in0.5 mm
02:43 PM 58.6°F14.8°C 40.1°F4.5°C 53% 3.8 mph NW6.1 kmh NW 14.3 mph23.0 kmh 30.28 in1025.4 mb 0.00 in0.0 mm 0.00 in0.0 mm 0.02 in0.5 mm
03:03 PM 57.2°F14.0°C 38.3°F3.5°C 52% 4.9 mph NW7.9 kmh NW 9.8 mph15.8 kmh 30.28 in1025.4 mb 0.00 in0.0 mm 0.00 in0.0 mm 0.02 in0.5 mm
03:24 PM 57.6°F14.2°C 38.7°F3.7°C 52% 3.8 mph NNW6.1 kmh NNW 9.4 mph15.1 kmh 30.27 in1025.1 mb 0.00 in0.0 mm 0.00 in0.0 mm 0.02 in0.5 mm
03:44 PM 58.1°F14.5°C 38.7°F3.7°C 51% 4.3 mph NW6.9 kmh NW 13.0 mph20.9 kmh 30.28 in1025.4 mb 0.00 in0.0 mm 0.00 in0.0 mm 0.02 in0.5 mm
04:04 PM 56.8°F13.8°C 37.9°F3.3°C 52% 3.8 mph NNW6.1 kmh NNW 9.8 mph15.8 kmh 30.29 in1025.7 mb 0.00 in0.0 mm 0.00 in0.0 mm 0.02 in0.5 mm
04:24 PM 55.6°F13.1°C 36.9°F2.7°C 52% 3.8 mph NNW6.1 kmh NNW 11.2 mph18.0 kmh 30.29 in1025.7 mb 0.00 in0.0 mm 0.00 in0.0 mm 0.02 in0.5 mm
04:45 PM 54.3°F12.4°C 35.6°F2.0°C 52% 2.5 mph NW4.0 kmh NW 9.4 mph15.1 kmh 30.29 in1025.7 mb 0.00 in0.0 mm 0.00 in0.0 mm 0.02 in0.5 mm
05:04 PM 53.6°F12.0°C 34.9°F1.6°C 52% 3.1 mph NW5.0 kmh NW 10.5 mph16.9 kmh 30.29 in1025.7 mb 0.00 in0.0 mm 0.00 in0.0 mm 0.02 in0.5 mm
05:23 PM 53.8°F12.1°C 35.1°F1.7°C 52% 3.1 mph NW5.0 kmh NW 8.7 mph14.0 kmh 30.30 in1026.1 mb 0.00 in0.0 mm 0.00 in0.0 mm 0.02 in0.5 mm
05:43 PM 53.4°F11.9°C 34.7°F1.5°C 52% 2.5 mph NW4.0 kmh NW 4.9 mph7.9 kmh 30.30 in1026.1 mb 0.00 in0.0 mm 0.00 in0.0 mm 0.02 in0.5 mm
06:08 PM 51.8°F11.0°C 33.6°F0.9°C 53% 1.3 mph NW2.1 kmh NW 4.3 mph6.9 kmh 30.30 in1026.1 mb 0.00 in0.0 mm 0.00 in0.0 mm 0.02 in0.5 mm
06:21 PM 51.1°F10.6°C 33.4°F0.8°C 54% 1.3 mph WNW2.1 kmh WNW 3.1 mph5.0 kmh 30.30 in1026.1 mb 0.00 in0.0 mm 0.00 in0.0 mm 0.02 in0.5 mm
06:39 PM 50.2°F10.1°C 32.5°F0.3°C 54% 1.3 mph W2.1 kmh W 1.8 mph2.9 kmh 30.31 in1026.4 mb 0.00 in0.0 mm 0.00 in0.0 mm 0.02 in0.5 mm
07:00 PM 49.6°F9.8°C 32.4°F0.2°C 55% 1.3 mph W2.1 kmh W 3.1 mph5.0 kmh 30.31 in1026.4 mb 0.00 in0.0 mm 0.00 in0.0 mm 0.02 in0.5 mm
07:25 PM 49.5°F9.7°C 32.7°F0.4°C 56% 0.7 mph W1.1 kmh W 3.1 mph5.0 kmh 30.32 in1026.8 mb 0.00 in0.0 mm 0.00 in0.0 mm 0.02 in0.5 mm
07:45 PM 49.3°F9.6°C 32.5°F0.3°C 56% 0.7 mph SW1.1 kmh SW 1.8 mph2.9 kmh 30.32 in1026.8 mb 0.00 in0.0 mm 0.00 in0.0 mm 0.02 in0.5 mm
08:00 PM 49.1°F9.5°C 32.7°F0.4°C 57% 0.7 mph W1.1 kmh W 1.8 mph2.9 kmh 30.31 in1026.4 mb 0.00 in0.0 mm 0.00 in0.0 mm 0.02 in0.5 mm
08:20 PM 49.1°F9.5°C 32.7°F0.4°C 57% 0.7 mph SW1.1 kmh SW 1.8 mph2.9 kmh 30.31 in1026.4 mb 0.00 in0.0 mm 0.00 in0.0 mm 0.02 in0.5 mm
08:40 PM 48.9°F9.4°C 32.9°F0.5°C 58% 0.7 mph SW1.1 kmh SW 1.8 mph2.9 kmh 30.31 in1026.4 mb 0.00 in0.0 mm 0.00 in0.0 mm 0.02 in0.5 mm
09:00 PM 48.7°F9.3°C 32.7°F0.4°C 58% 0.7 mph SW1.1 kmh SW 1.8 mph2.9 kmh 30.31 in1026.4 mb 0.00 in0.0 mm 0.00 in0.0 mm 0.02 in0.5 mm
09:27 PM 48.6°F9.2°C 32.5°F0.3°C 58% 1.3 mph SW2.1 kmh SW 2.5 mph4.0 kmh 30.30 in1026.1 mb 0.00 in0.0 mm 0.00 in0.0 mm 0.02 in0.5 mm
09:47 PM 48.2°F9.0°C 32.2°F0.1°C 58% 1.3 mph SW2.1 kmh SW 3.8 mph6.1 kmh 30.30 in1026.1 mb 0.00 in0.0 mm 0.00 in0.0 mm 0.02 in0.5 mm
10:08 PM 47.8°F8.8°C 31.8°F-0.1°C 58% 1.3 mph SSW2.1 kmh SSW 2.5 mph4.0 kmh 30.30 in1026.1 mb 0.00 in0.0 mm 0.00 in0.0 mm 0.02 in0.5 mm
10:27 PM 47.8°F8.8°C 31.8°F-0.1°C 58% 1.3 mph SSW2.1 kmh SSW 2.5 mph4.0 kmh 30.30 in1026.1 mb 0.00 in0.0 mm 0.00 in0.0 mm 0.02 in0.5 mm
10:48 PM 47.8°F8.8°C 31.8°F-0.1°C 58% 1.3 mph SW2.1 kmh SW 3.1 mph5.0 kmh 30.29 in1025.7 mb 0.00 in0.0 mm 0.00 in0.0 mm 0.02 in0.5 mm
11:08 PM 48.2°F9.0°C 32.2°F0.1°C 58% 1.3 mph SSW2.1 kmh SSW 3.1 mph5.0 kmh 30.29 in1025.7 mb 0.00 in0.0 mm 0.00 in0.0 mm 0.02 in0.5 mm
11:28 PM 48.0°F8.9°C 32.0°F0.0°C 58% 1.3 mph S2.1 kmh S 2.5 mph4.0 kmh 30.28 in1025.4 mb 0.00 in0.0 mm 0.00 in0.0 mm 0.02 in0.5 mm
11:48 PM 47.7°F8.7°C 31.6°F-0.2°C 58% 1.8 mph SW2.9 kmh SW 3.8 mph6.1 kmh 30.27 in1025.1 mb 0.00 in0.0 mm 0.00 in0.0 mm 0.02 in0.5 mm